Ta-cho-shui, Taiwan
Current Conditions -  °F | °C
As of 12:23 PM on Friday 28 Nov 2014 (Local Time) from RCSS Reporting Station
Scattered Clouds Scattered Clouds  
Wind Chill: 84°   Ceiling: Unl
Heat Index: 87°   Visibility: 4mi
Dew Point: 68°   Wind: 10mph
Humidity: 58%   Direction: 270°W
Pressure: 29.94"   Gusts: NA
Location:  24.33°N, 121.73°E
Report Text: RCSS 280423Z 27009KT 7000 FEW025 SCT080 29/20 Q1014 NOSIGRMK 30010KT/R10 A2995
Loading
Personal Weather Stations






























Interactive Weather Map New forecast layout! Learn more

10-Day Weather Forecast

Advertisements
Track Severe Weather on mobile